This demonstration page uses our WeatherBlox Daily Observations layout. Learn more.

36.17497, -115.13722

Hourly Observations for May 26, 2018

Temp ( °F °C ) Dew Point ( °F °C ) Humidity (%) Winds ( mph kmh ) Pressure ( in mb ) Visibility ( mi km ) Precip ( " mm )
12:53 am 00:53 Clear 72 22.2 33 0.6 24 24 S 12 19 29.77 1008 10 16.09344 0 0
1:53 am 01:53 Clear 70 21.1 35 1.7 28 28 S 15 24 29.77 1008 10 16.09344 0 0
2:53 am 02:53 Clear 69 20.6 36 2.2 30 30 S 15 24 29.77 1008 10 16.09344 0 0
3:53 am 03:53 Clear 67 19.4 36 2.2 32 32 S 13 20 29.77 1008 10 16.09344 0 0
4:53 am 04:53 Clear 65 18.3 35 1.7 33 33 SSW 14 22 29.77 1008 10 16.09344 0 0
5:53 am 05:53 Sunny 63 17.2 36 2.2 37 37 S 13 20 29.77 1008 10 16.09344 0 0
6:53 am 06:53 Sunny 64 17.8 36 2.2 35 35 SW 18 30 29.8 1009 10 16.09344 0 0
7:53 am 07:53 Sunny 66 18.9 36 2.2 33 33 NNW 6 9 29.8 1009 10 16.09344 0 0
8:53 am 08:53 Sunny 68 20 35 1.7 30 30 Calm 29.8 1009 10 16.09344 0 0
9:53 am 09:53 Sunny 70 21.1 36 2.2 29 29 SSE 6 9 29.83 1010 10 16.09344 0 0
10:53 am 10:53 Sunny 72 22.2 34 1.1 25 25 undefined N/A 29.8 1009 10 16.09344 0 0
11:53 am 11:53 Sunny 73 22.8 31 -0.6 21 21 N 3 6 29.8 1009 10 16.09344 0 0
12:53 pm 12:53 Sunny 76 24.4 30 -1.1 18 18 S 5 7 29.77 1008 10 16.09344 0 0
1:53 pm 13:53 Sunny 77 25 34 1.1 21 21 SE 9 15 29.77 1008 10 16.09344 0 0
2:53 pm 14:53 Sunny 79 26.1 31 -0.6 17 17 E 10 17 29.74 1007 10 16.09344 0 0
3:53 pm 15:53 Sunny 80 26.7 32 0 17 17 N 7 11 29.74 1007 10 16.09344 0 0
4:53 pm 16:53 Mostly Sunny 80 26.7 31 -0.6 17 17 S 10 17 29.71 1006 10 16.09344 0 0
5:53 pm 17:53 Sunny 80 26.7 31 -0.6 17 17 S 12 19 29.71 1006 10 16.09344 0 0
6:53 pm 18:53 Sunny 80 26.7 31 -0.6 17 17 S 9 15 29.71 1006 10 16.09344 0 0
7:53 pm 19:53 Clear 79 26.1 30 -1.1 17 17 WSW 12 19 29.71 1006 10 16.09344 0 0
8:53 pm 20:53 Clear 77 25 29 -1.7 17 17 SW 9 15 29.74 1007 10 16.09344 0 0
9:53 pm 21:53 Clear 77 25 32 0 19 19 WNW 6 9 29.77 1008 10 16.09344 0 0
10:53 pm 22:53 Clear 75 23.9 30 -1.1 19 19 W 5 7 29.77 1008 10 16.09344 0 0
11:53 pm 23:53 Clear 74 23.3 32 0 21 21 NNW 5 7 29.77 1008 10 16.09344 0 0

Powered by AerisWeather